createdAt,value
2018-09-09T00:01:38.118Z,10.53
2018-09-09T00:03:40.321Z,8.43
2018-09-09T00:05:42.460Z,8.17
2018-09-09T00:07:44.657Z,9.60
2018-09-09T00:09:46.818Z,10.70
2018-09-09T00:11:48.981Z,8.00
2018-09-09T00:13:51.149Z,11.50
2018-09-09T00:15:53.287Z,11.83
2018-09-09T00:17:55.423Z,8.50
2018-09-09T00:19:57.588Z,8.67
2018-09-09T00:21:59.757Z,9.00
2018-09-09T00:24:01.906Z,8.00
2018-09-09T00:26:04.384Z,7.40
2018-09-09T00:28:06.592Z,10.83
2018-09-09T00:30:08.726Z,9.67
2018-09-09T00:32:10.903Z,7.80
2018-09-09T00:34:13.059Z,8.57
2018-09-09T00:36:15.198Z,9.43
2018-09-09T00:38:17.331Z,9.50
2018-09-09T00:40:19.504Z,11.17
2018-09-09T00:42:21.671Z,9.97
2018-09-09T00:44:24.026Z,10.27
2018-09-09T00:46:26.200Z,12.57
2018-09-09T00:48:28.348Z,11.87
2018-09-09T00:50:36.299Z,10.40
2018-09-09T00:52:44.061Z,11.07
2018-09-09T00:54:46.286Z,11.83
2018-09-09T00:56:48.414Z,15.43
2018-09-09T00:58:50.581Z,14.80
2018-09-09T01:00:58.359Z,11.53
2018-09-09T01:03:00.625Z,11.20
2018-09-09T01:05:02.839Z,11.63
2018-09-09T01:07:05.029Z,11.93
2018-09-09T01:09:08.208Z,13.13
2018-09-09T01:11:10.536Z,11.87
2018-09-09T01:13:12.694Z,11.57
2018-09-09T01:15:14.830Z,13.07
2018-09-09T01:17:16.977Z,13.00
2018-09-09T01:19:19.142Z,11.97
2018-09-09T01:21:21.312Z,11.93
2018-09-09T01:23:23.489Z,13.50
2018-09-09T01:25:25.633Z,14.23
2018-09-09T01:27:27.874Z,12.13
2018-09-09T01:29:30.202Z,12.47
2018-09-09T01:31:32.407Z,12.00
2018-09-09T01:33:34.566Z,12.70
2018-09-09T01:35:36.738Z,16.27
2018-09-09T01:37:38.887Z,13.13
2018-09-09T01:39:41.050Z,12.30
2018-09-09T01:41:43.470Z,13.93
2018-09-09T01:43:45.629Z,13.00
2018-09-09T01:45:47.846Z,12.47
2018-09-09T01:47:50.510Z,13.03
2018-09-09T01:49:52.819Z,14.40
2018-09-09T01:51:54.946Z,16.33
2018-09-09T01:53:57.149Z,13.23
2018-09-09T01:56:00.063Z,13.43
2018-09-09T01:58:02.208Z,14.40
2018-09-09T02:00:04.660Z,13.00
2018-09-09T02:02:06.834Z,15.00
2018-09-09T02:04:09.015Z,14.00
2018-09-09T02:06:11.318Z,14.17
2018-09-09T02:08:13.507Z,14.00
2018-09-09T02:10:15.656Z,13.90
2018-09-09T02:12:17.825Z,14.17
2018-09-09T02:14:19.984Z,13.87
2018-09-09T02:16:22.101Z,13.63
2018-09-09T02:18:24.274Z,13.50
2018-09-09T02:20:26.487Z,15.60
2018-09-09T02:22:28.647Z,14.60
2018-09-09T02:24:30.801Z,15.37
2018-09-09T02:26:33.190Z,14.60
2018-09-09T02:28:35.348Z,15.00
2018-09-09T02:30:37.503Z,14.10
2018-09-09T02:32:39.682Z,15.53
2018-09-09T02:34:41.947Z,14.87
2018-09-09T02:36:44.106Z,15.17
2018-09-09T02:38:46.282Z,16.13
2018-09-09T02:40:48.450Z,14.70
2018-09-09T02:42:50.635Z,15.07
2018-09-09T02:44:52.783Z,14.47
2018-09-09T02:46:54.956Z,15.37
2018-09-09T02:48:57.126Z,15.30
2018-09-09T02:50:59.265Z,15.30
2018-09-09T02:53:01.385Z,15.03
2018-09-09T02:55:03.539Z,15.30
2018-09-09T02:57:05.692Z,14.23
2018-09-09T02:59:07.871Z,14.60
2018-09-09T03:01:10.032Z,16.50
2018-09-09T03:03:12.182Z,15.43
2018-09-09T03:05:14.707Z,14.60
2018-09-09T03:07:16.881Z,15.43
2018-09-09T03:09:19.049Z,13.17
2018-09-09T03:11:21.499Z,14.53
2018-09-09T03:13:23.659Z,14.20
2018-09-09T03:15:25.806Z,14.83
2018-09-09T03:17:28.003Z,15.00
2018-09-09T03:19:30.718Z,15.03
2018-09-09T03:21:32.851Z,13.60
2018-09-09T03:23:35.044Z,13.57
2018-09-09T03:25:37.190Z,13.53
2018-09-09T03:27:39.354Z,15.80
2018-09-09T03:29:41.538Z,13.30
2018-09-09T03:31:43.708Z,13.83
2018-09-09T03:33:45.867Z,14.50
2018-09-09T03:35:48.001Z,13.80
2018-09-09T03:37:50.211Z,12.93
2018-09-09T03:39:52.419Z,13.27
2018-09-09T03:41:54.883Z,15.23
2018-09-09T03:43:57.030Z,13.13
2018-09-09T03:45:59.175Z,13.67
2018-09-09T03:48:01.324Z,13.97
2018-09-09T03:50:03.537Z,13.73
2018-09-09T03:52:05.755Z,13.80
2018-09-09T03:54:07.970Z,12.60
2018-09-09T03:56:10.134Z,13.27
2018-09-09T03:58:12.282Z,12.73
2018-09-09T04:00:14.469Z,13.00
2018-09-09T04:02:16.648Z,12.73
2018-09-09T04:04:18.778Z,12.57
2018-09-09T04:06:21.440Z,12.33
2018-09-09T04:08:23.651Z,14.03
2018-09-09T04:10:25.895Z,12.37
2018-09-09T04:12:28.138Z,12.60
2018-09-09T04:14:30.272Z,13.73
2018-09-09T04:16:32.486Z,13.67
2018-09-09T04:18:34.646Z,12.57
2018-09-09T04:20:36.854Z,13.80
2018-09-09T04:22:39.007Z,12.67
2018-09-09T04:24:41.522Z,12.90
2018-09-09T04:26:43.658Z,12.70
2018-09-09T04:28:45.848Z,12.63
2018-09-09T04:30:48.342Z,11.63
2018-09-09T04:32:50.527Z,12.13
2018-09-09T04:34:52.702Z,12.10
2018-09-09T04:36:54.889Z,12.00
2018-09-09T04:38:57.044Z,13.33
2018-09-09T04:40:59.206Z,12.30
2018-09-09T04:43:01.368Z,12.30
2018-09-09T04:45:03.534Z,16.03
2018-09-09T04:47:05.681Z,11.90
2018-09-09T04:49:08.918Z,11.87
2018-09-09T04:51:11.242Z,10.93
2018-09-09T04:53:13.379Z,12.70
2018-09-09T04:55:15.598Z,11.13
2018-09-09T04:57:17.731Z,11.50
2018-09-09T04:59:19.865Z,12.27
2018-09-09T05:01:22.220Z,11.40
2018-09-09T05:03:24.306Z,11.33
2018-09-09T05:05:26.483Z,11.10
2018-09-09T05:07:28.647Z,10.33
2018-09-09T05:09:30.819Z,10.80
2018-09-09T05:11:33.111Z,10.63
2018-09-09T05:13:35.275Z,10.13
2018-09-09T05:15:37.475Z,10.57
2018-09-09T05:17:39.653Z,9.37
2018-09-09T05:19:42.110Z,9.70
2018-09-09T05:21:44.262Z,9.30
2018-09-09T05:23:46.429Z,9.47
2018-09-09T05:25:48.630Z,9.40
2018-09-09T05:27:50.830Z,9.77
2018-09-09T05:29:53.011Z,9.33
2018-09-09T05:31:55.183Z,10.40
2018-09-09T05:33:57.434Z,10.30
2018-09-09T05:35:59.619Z,10.40
2018-09-09T05:38:01.883Z,12.67
2018-09-09T05:40:04.262Z,10.67
2018-09-09T05:42:06.441Z,11.23
2018-09-09T05:44:08.584Z,10.10
2018-09-09T05:46:10.779Z,10.80
2018-09-09T05:48:12.970Z,10.50
2018-09-09T05:52:24.242Z,10.43
2018-09-09T05:54:26.844Z,10.87
2018-09-09T05:56:29.008Z,11.63
2018-09-09T05:58:31.138Z,11.07
2018-09-09T06:00:33.302Z,12.93
2018-09-09T06:02:35.466Z,10.50
2018-09-09T06:04:37.622Z,10.23
2018-09-09T06:06:39.842Z,10.50
2018-09-09T06:08:41.986Z,12.03
2018-09-09T06:10:45.698Z,10.80
2018-09-09T06:12:47.887Z,11.10
2018-09-09T06:14:50.070Z,10.30
2018-09-09T06:16:52.195Z,10.77
2018-09-09T06:18:54.482Z,10.27
2018-09-09T06:20:56.642Z,10.97
2018-09-09T06:22:58.785Z,10.40
2018-09-09T06:25:00.954Z,10.83
2018-09-09T06:27:03.159Z,10.07
2018-09-09T06:29:05.375Z,9.90
2018-09-09T06:31:07.828Z,10.63
2018-09-09T06:33:10.046Z,10.43
2018-09-09T06:35:12.231Z,9.23
2018-09-09T06:37:14.378Z,10.03
2018-09-09T06:39:16.509Z,10.20
2018-09-09T06:41:25.284Z,10.77
2018-09-09T06:43:27.584Z,11.07
2018-09-09T06:45:29.722Z,18.57
2018-09-09T06:47:31.891Z,10.27
2018-09-09T06:49:34.043Z,10.50
2018-09-09T06:51:36.523Z,9.50
2018-09-09T06:53:38.679Z,11.63
2018-09-09T06:55:40.817Z,10.47
2018-09-09T06:57:42.990Z,9.90
2018-09-09T06:59:45.185Z,9.90
2018-09-09T07:01:47.357Z,10.23
2018-09-09T07:03:49.608Z,18.50
2018-09-09T07:05:51.771Z,10.23
2018-09-09T07:07:54.469Z,9.20
2018-09-09T07:09:56.643Z,10.57
2018-09-09T07:11:58.932Z,11.17
2018-09-09T07:14:01.261Z,11.90
2018-09-09T07:16:03.464Z,12.07
2018-09-09T07:18:05.627Z,10.53
2018-09-09T07:20:08.146Z,10.13
2018-09-09T07:22:10.327Z,9.33
2018-09-09T07:24:12.426Z,9.57
2018-09-09T07:26:14.574Z,9.60
2018-09-09T07:28:16.706Z,9.13
2018-09-09T07:30:18.867Z,9.97
2018-09-09T07:32:21.628Z,9.37
2018-09-09T07:34:23.805Z,11.93
2018-09-09T07:36:25.934Z,10.13
2018-09-09T07:38:28.044Z,9.20
2018-09-09T07:40:30.491Z,7.97
2018-09-09T07:42:32.656Z,8.00
2018-09-09T07:44:34.827Z,8.00
2018-09-09T07:46:36.994Z,7.73
2018-09-09T07:48:39.091Z,6.80
2018-09-09T07:50:41.325Z,7.20
2018-09-09T07:52:45.762Z,7.23
2018-09-09T07:54:47.887Z,7.90
2018-09-09T07:56:50.126Z,7.50
2018-09-09T07:58:52.270Z,9.97
2018-09-09T08:00:54.676Z,8.13
2018-09-09T08:02:56.845Z,9.20
2018-09-09T08:04:59.060Z,8.17
2018-09-09T08:07:01.273Z,8.17
2018-09-09T08:09:05.472Z,7.77
2018-09-09T08:11:07.647Z,8.63
2018-09-09T08:13:09.795Z,8.40
2018-09-09T08:15:12.529Z,7.97
2018-09-09T08:17:15.147Z,8.97
2018-09-09T08:19:17.315Z,8.03
2018-09-09T08:21:19.556Z,7.37
2018-09-09T08:23:21.735Z,8.10
2018-09-09T08:25:23.890Z,8.57
2018-09-09T08:27:26.178Z,7.77
2018-09-09T08:29:28.876Z,8.03
2018-09-09T08:31:31.340Z,7.97
2018-09-09T08:33:33.514Z,8.60
2018-09-09T08:35:35.748Z,8.93
2018-09-09T08:37:37.990Z,9.30
2018-09-09T08:39:40.141Z,9.00
2018-09-09T08:41:42.585Z,7.40
2018-09-09T08:43:44.774Z,7.90
2018-09-09T08:45:46.924Z,8.10
2018-09-09T08:47:49.105Z,7.30
2018-09-09T08:49:51.414Z,9.67
2018-09-09T08:51:53.628Z,8.43
2018-09-09T08:53:55.729Z,7.37
2018-09-09T08:55:57.942Z,9.33
2018-09-09T08:58:00.094Z,6.00
2018-09-09T09:00:03.265Z,11.53
2018-09-09T09:02:05.585Z,6.60
2018-09-09T09:04:07.767Z,7.83
2018-09-09T09:06:09.939Z,11.53
2018-09-09T09:08:12.144Z,7.87
2018-09-09T09:10:14.295Z,7.43
2018-09-09T09:12:16.455Z,7.37
2018-09-09T09:14:18.580Z,8.73
2018-09-09T09:16:20.928Z,7.07
2018-09-09T09:18:23.078Z,11.60
2018-09-09T09:20:25.241Z,7.00
2018-09-09T09:22:27.387Z,8.27
2018-09-09T09:24:29.669Z,6.60
2018-09-09T09:26:31.846Z,8.00
2018-09-09T09:28:33.974Z,7.23
2018-09-09T09:30:36.131Z,7.60
2018-09-09T09:32:42.886Z,10.87
2018-09-09T09:34:45.004Z,6.90
2018-09-09T09:36:47.131Z,7.97
2018-09-09T09:38:49.297Z,8.83
2018-09-09T09:40:52.046Z,8.03
2018-09-09T09:42:54.203Z,9.50
2018-09-09T09:44:56.688Z,8.20
2018-09-09T09:46:59.755Z,7.90
2018-09-09T09:49:01.969Z,8.27
2018-09-09T09:51:04.239Z,6.60
2018-09-09T09:53:06.428Z,6.97
2018-09-09T09:55:08.600Z,6.77
2018-09-09T09:57:10.701Z,6.80
2018-09-09T09:59:12.846Z,8.73
2018-09-09T10:01:15.087Z,8.03
2018-09-09T10:03:17.327Z,7.43
2018-09-09T10:05:19.631Z,7.27
2018-09-09T10:07:21.749Z,7.20
2018-09-09T10:09:24.297Z,10.47
2018-09-09T10:11:26.569Z,8.47
2018-09-09T10:13:28.702Z,8.80
2018-09-09T10:15:31.656Z,8.00
2018-09-09T10:17:33.786Z,8.57
2018-09-09T10:19:35.959Z,11.50
2018-09-09T10:21:38.105Z,7.07
2018-09-09T10:23:40.291Z,6.70
2018-09-09T10:25:42.430Z,7.97
2018-09-09T10:27:44.881Z,7.50
2018-09-09T10:29:47.113Z,9.37
2018-09-09T10:31:49.426Z,6.53
2018-09-09T10:33:51.656Z,6.53
2018-09-09T10:35:53.770Z,8.60
2018-09-09T10:37:55.916Z,6.77
2018-09-09T10:39:58.148Z,6.23
2018-09-09T10:42:00.495Z,8.13
2018-09-09T10:44:02.773Z,8.17
2018-09-09T10:46:04.945Z,6.93
2018-09-09T10:48:07.163Z,5.20
2018-09-09T10:50:09.374Z,7.50
2018-09-09T10:52:11.461Z,5.63
2018-09-09T10:54:13.981Z,6.03
2018-09-09T10:56:16.071Z,5.63
2018-09-09T10:58:25.152Z,5.73
2018-09-09T11:00:27.379Z,7.60
2018-09-09T11:02:29.606Z,5.13
2018-09-09T11:04:31.698Z,5.47
2018-09-09T11:06:34.174Z,5.77
2018-09-09T11:08:36.274Z,5.73
2018-09-09T11:10:38.579Z,7.43
2018-09-09T11:12:40.776Z,8.60
2018-09-09T11:14:42.845Z,9.30
2018-09-09T11:16:45.062Z,6.80
2018-09-09T11:18:47.338Z,5.97
2018-09-09T11:20:49.555Z,5.60
2018-09-09T11:22:51.827Z,6.83
2018-09-09T11:24:53.989Z,4.57
2018-09-09T11:26:56.106Z,6.70
2018-09-09T11:28:58.283Z,6.53
2018-09-09T11:31:00.402Z,4.70
2018-09-09T11:33:02.558Z,5.97
2018-09-09T11:35:04.778Z,5.50
2018-09-09T11:37:07.134Z,4.60
2018-09-09T11:39:09.886Z,6.73
2018-09-09T11:41:12.038Z,6.40
2018-09-09T11:43:15.762Z,5.67
2018-09-09T11:45:17.995Z,5.63
2018-09-09T11:47:20.148Z,8.83
2018-09-09T11:49:22.375Z,5.77
2018-09-09T11:51:24.575Z,6.00
2018-09-09T11:53:26.705Z,6.23
2018-09-09T11:55:29.114Z,6.10
2018-09-09T11:57:31.295Z,6.47
2018-09-09T11:59:33.435Z,3.70
2018-09-09T12:01:35.640Z,5.20
2018-09-09T12:03:37.786Z,5.60
2018-09-09T12:05:39.927Z,5.27
2018-09-09T12:07:42.350Z,5.57
2018-09-09T12:09:44.495Z,6.47
2018-09-09T12:11:46.630Z,5.80
2018-09-09T12:13:48.996Z,4.37
2018-09-09T12:15:51.050Z,3.80
2018-09-09T12:17:53.167Z,5.80
2018-09-09T12:19:55.346Z,4.60
2018-09-09T12:21:57.476Z,5.67
2018-09-09T12:24:00.610Z,5.40
2018-09-09T12:26:02.800Z,4.97
2018-09-09T12:28:04.918Z,4.43
2018-09-09T12:30:07.054Z,5.93
2018-09-09T12:32:10.305Z,5.60
2018-09-09T12:34:12.406Z,4.17
2018-09-09T12:36:14.528Z,5.80
2018-09-09T12:38:16.957Z,7.93
2018-09-09T12:40:19.082Z,6.83
2018-09-09T12:42:21.189Z,3.77
2018-09-09T12:44:29.411Z,3.50
2018-09-09T12:46:37.556Z,3.87
2018-09-09T12:48:45.413Z,7.17
2018-09-09T12:50:47.590Z,3.30
2018-09-09T12:52:49.744Z,3.90
2018-09-09T12:54:51.871Z,3.90
2018-09-09T12:56:54.282Z,6.67
2018-09-09T12:58:57.040Z,4.47
2018-09-09T13:00:59.185Z,4.10
2018-09-09T13:03:01.659Z,4.57
2018-09-09T13:05:03.793Z,3.70
2018-09-09T13:07:06.425Z,4.53
2018-09-09T13:09:09.924Z,3.47
2018-09-09T13:11:12.079Z,3.60
2018-09-09T13:13:14.287Z,2.90
2018-09-09T13:15:16.390Z,5.10
2018-09-09T13:17:19.003Z,3.77
2018-09-09T13:19:21.188Z,5.27
2018-09-09T13:21:23.556Z,5.00
2018-09-09T13:23:26.132Z,3.33
2018-09-09T13:25:28.471Z,4.13
2018-09-09T13:27:31.957Z,4.40
2018-09-09T13:29:35.009Z,5.13
2018-09-09T13:31:38.807Z,4.30
2018-09-09T13:33:41.154Z,3.80
2018-09-09T13:35:44.158Z,3.60
2018-09-09T13:37:46.574Z,5.03
2018-09-09T13:39:48.770Z,5.23
2018-09-09T13:41:51.548Z,4.57
2018-09-09T13:43:54.469Z,4.77
2018-09-09T13:45:57.115Z,4.47
2018-09-09T13:48:01.103Z,4.37
2018-09-09T13:50:04.182Z,3.53
2018-09-09T13:52:08.491Z,3.03
2018-09-09T13:54:11.259Z,4.53
2018-09-09T13:56:14.565Z,3.17
2018-09-09T13:58:17.633Z,3.03
2018-09-09T14:00:20.165Z,3.47
2018-09-09T14:02:23.020Z,5.30
2018-09-09T14:04:25.583Z,7.00
2018-09-09T14:06:28.015Z,3.30
2018-09-09T14:08:30.518Z,4.27
2018-09-09T14:10:32.758Z,4.77
2018-09-09T14:12:35.304Z,4.40
2018-09-09T14:14:37.404Z,4.80
2018-09-09T14:16:39.793Z,3.27
2018-09-09T14:18:42.155Z,4.60
2018-09-09T14:20:44.375Z,4.40
2018-09-09T14:22:46.661Z,3.60
2018-09-09T14:24:49.802Z,3.43
2018-09-09T14:26:52.032Z,2.63
2018-09-09T14:28:54.162Z,3.07
2018-09-09T14:30:56.592Z,4.27
2018-09-09T14:32:58.752Z,3.47
2018-09-09T14:35:01.114Z,3.40
2018-09-09T14:37:03.292Z,3.30
2018-09-09T14:39:07.039Z,4.10
2018-09-09T14:41:09.198Z,3.80
2018-09-09T14:43:11.307Z,4.13
2018-09-09T14:45:13.414Z,3.20
2018-09-09T14:47:15.534Z,4.17
2018-09-09T14:49:17.694Z,3.43
2018-09-09T14:51:19.815Z,4.20
2018-09-09T14:53:22.217Z,5.93
2018-09-09T14:55:24.489Z,3.10
2018-09-09T14:57:26.661Z,3.47
2018-09-09T14:59:28.882Z,3.83
2018-09-09T15:01:31.287Z,3.27
2018-09-09T15:03:33.411Z,3.17
2018-09-09T15:05:35.593Z,3.40
2018-09-09T15:07:38.083Z,6.57
2018-09-09T15:09:40.187Z,3.60
2018-09-09T15:11:42.299Z,5.83
2018-09-09T15:13:44.492Z,3.83
2018-09-09T15:15:46.634Z,4.00
2018-09-09T15:17:48.787Z,3.73
2018-09-09T15:19:50.983Z,4.03
2018-09-09T15:21:53.089Z,5.80
2018-09-09T15:23:55.258Z,4.40
2018-09-09T15:25:57.443Z,4.23
2018-09-09T15:27:59.662Z,6.40
2018-09-09T15:30:01.881Z,5.70
2018-09-09T15:32:04.034Z,3.37
2018-09-09T15:34:06.180Z,3.10
2018-09-09T15:36:08.294Z,3.50
2018-09-09T15:38:10.618Z,5.13
2018-09-09T15:40:12.754Z,6.13
2018-09-09T15:42:14.871Z,3.53
2018-09-09T15:44:17.020Z,3.20
2018-09-09T15:46:19.170Z,5.20
2018-09-09T15:48:21.301Z,4.50
2018-09-09T15:50:23.431Z,4.20
2018-09-09T15:52:25.555Z,3.50
2018-09-09T15:56:36.871Z,3.77
2018-09-09T15:58:38.967Z,3.00
2018-09-09T16:00:41.151Z,3.50
2018-09-09T16:02:43.274Z,3.57
2018-09-09T16:04:45.401Z,3.97
2018-09-09T16:06:47.518Z,3.70
2018-09-09T16:08:49.674Z,3.40
2018-09-09T16:10:51.754Z,3.80
2018-09-09T16:12:54.232Z,3.10
2018-09-09T16:14:56.318Z,3.90
2018-09-09T16:16:58.428Z,3.93
2018-09-09T16:19:00.740Z,3.10
2018-09-09T16:21:02.937Z,3.70
2018-09-09T16:23:05.046Z,4.47
2018-09-09T16:25:07.178Z,6.33
2018-09-09T16:27:09.478Z,7.13
2018-09-09T16:29:11.697Z,4.20
2018-09-09T16:31:13.813Z,4.83
2018-09-09T16:33:18.039Z,6.10
2018-09-09T16:35:20.357Z,3.37
2018-09-09T16:37:22.497Z,3.70
2018-09-09T16:39:24.622Z,4.17
2018-09-09T16:41:26.719Z,6.67
2018-09-09T16:43:28.927Z,8.10
2018-09-09T16:45:31.074Z,6.37
2018-09-09T16:47:33.254Z,4.40
2018-09-09T16:49:35.370Z,3.47
2018-09-09T16:51:37.506Z,3.50
2018-09-09T16:53:39.638Z,4.20
2018-09-09T16:55:41.789Z,4.13
2018-09-09T16:57:43.902Z,7.37
2018-09-09T16:59:46.043Z,7.47
2018-09-09T17:01:48.178Z,6.40
2018-09-09T17:03:50.602Z,4.03
2018-09-09T17:05:52.918Z,5.00
2018-09-09T17:07:55.047Z,4.30
2018-09-09T17:09:57.198Z,6.60
2018-09-09T17:11:59.318Z,4.57
2018-09-09T17:14:01.521Z,4.77
2018-09-09T17:16:03.613Z,5.67
2018-09-09T17:18:05.736Z,3.40
2018-09-09T17:20:07.868Z,3.57
2018-09-09T17:22:10.000Z,3.83
2018-09-09T17:24:12.118Z,5.00
2018-09-09T17:26:14.250Z,6.77
2018-09-09T17:28:16.375Z,5.43
2018-09-09T17:30:18.547Z,8.33
2018-09-09T17:32:20.738Z,11.00
2018-09-09T17:34:22.853Z,5.83
2018-09-09T17:36:24.966Z,4.40
2018-09-09T17:38:27.695Z,4.73
2018-09-09T17:40:29.827Z,4.43
2018-09-09T17:42:31.992Z,5.77
2018-09-09T17:44:34.117Z,4.47
2018-09-09T17:46:36.302Z,3.97
2018-09-09T17:48:38.463Z,7.20
2018-09-09T17:50:40.786Z,7.30
2018-09-09T17:52:42.911Z,5.63
2018-09-09T17:54:45.040Z,5.33
2018-09-09T17:56:47.440Z,6.53
2018-09-09T17:58:49.684Z,4.27
2018-09-09T18:00:51.786Z,7.27
2018-09-09T18:02:54.482Z,6.30
2018-09-09T18:04:56.608Z,7.13
2018-09-09T18:06:58.727Z,7.40
2018-09-09T18:09:00.880Z,6.10
2018-09-09T18:11:03.081Z,6.03
2018-09-09T18:13:05.173Z,7.77
2018-09-09T18:15:07.660Z,4.20
2018-09-09T18:17:09.799Z,4.67
2018-09-09T18:19:11.915Z,4.33
2018-09-09T18:21:14.454Z,5.83
2018-09-09T18:23:18.086Z,5.63
2018-09-09T18:25:20.170Z,5.00
2018-09-09T18:27:22.314Z,6.27
2018-09-09T18:29:24.743Z,5.57
2018-09-09T18:31:26.835Z,4.77
2018-09-09T18:33:35.348Z,5.87
2018-09-09T18:35:37.677Z,4.43
2018-09-09T18:37:39.815Z,6.60
2018-09-09T18:39:41.986Z,3.80
2018-09-09T18:41:49.416Z,3.53
2018-09-09T18:43:51.530Z,4.43
2018-09-09T18:45:53.769Z,6.10
2018-09-09T18:47:55.909Z,3.43
2018-09-09T18:49:58.050Z,5.30
2018-09-09T18:52:00.228Z,5.00
2018-09-09T18:54:02.404Z,4.70
2018-09-09T18:56:04.985Z,5.37
2018-09-09T18:58:07.139Z,8.50
2018-09-09T19:00:09.383Z,4.23
2018-09-09T19:02:11.570Z,5.73
2018-09-09T19:04:13.861Z,6.00
2018-09-09T19:06:16.100Z,4.30
2018-09-09T19:08:18.263Z,5.43
2018-09-09T19:10:20.594Z,6.33
2018-09-09T19:12:22.870Z,5.60
2018-09-09T19:14:25.018Z,4.80
2018-09-09T19:16:27.195Z,5.07
2018-09-09T19:18:29.392Z,5.97
2018-09-09T19:20:31.582Z,5.33
2018-09-09T19:22:34.127Z,7.83
2018-09-09T19:24:36.359Z,6.40
2018-09-09T19:26:38.518Z,7.03
2018-09-09T19:28:40.951Z,6.67
2018-09-09T19:30:43.214Z,6.70
2018-09-09T19:32:45.483Z,5.10
2018-09-09T19:34:47.743Z,7.03
2018-09-09T19:36:50.210Z,6.97
2018-09-09T19:38:52.377Z,5.73
2018-09-09T19:40:54.671Z,5.53
2018-09-09T19:42:56.818Z,5.63
2018-09-09T19:44:58.959Z,4.70
2018-09-09T19:47:01.131Z,5.60
2018-09-09T19:49:03.926Z,5.00
2018-09-09T19:51:06.063Z,6.77
2018-09-09T19:53:08.216Z,5.33
2018-09-09T19:55:10.441Z,5.00
2018-09-09T19:57:12.562Z,5.10
2018-09-09T19:59:14.767Z,6.70
2018-09-09T20:01:16.894Z,6.00
2018-09-09T20:03:19.054Z,6.30
2018-09-09T20:05:21.378Z,9.77
2018-09-09T20:07:23.534Z,5.50
2018-09-09T20:09:25.753Z,5.80
2018-09-09T20:11:27.870Z,7.40
2018-09-09T20:13:30.086Z,6.20
2018-09-09T20:15:32.202Z,5.83
2018-09-09T20:17:34.338Z,5.67
2018-09-09T20:19:36.518Z,7.53
2018-09-09T20:21:38.662Z,6.33
2018-09-09T20:23:40.783Z,5.67
2018-09-09T20:25:42.921Z,6.67
2018-09-09T20:27:45.018Z,5.80
2018-09-09T20:29:47.433Z,7.60
2018-09-09T20:31:50.301Z,7.23
2018-09-09T20:33:52.464Z,5.53
2018-09-09T20:35:54.671Z,7.03
2018-09-09T20:37:56.784Z,6.00
2018-09-09T20:39:58.914Z,5.53
2018-09-09T20:42:01.293Z,6.50
2018-09-09T20:44:04.007Z,6.67
2018-09-09T20:46:06.275Z,7.23
2018-09-09T20:48:08.411Z,8.60
2018-09-09T20:50:10.631Z,8.47
2018-09-09T20:52:12.738Z,7.27
2018-09-09T20:54:15.116Z,6.13
2018-09-09T20:56:17.226Z,6.10
2018-09-09T20:58:19.326Z,5.30
2018-09-09T21:00:21.789Z,6.03
2018-09-09T21:02:23.874Z,8.13
2018-09-09T21:04:26.012Z,6.27
2018-09-09T21:06:28.201Z,8.00
2018-09-09T21:08:30.355Z,9.93
2018-09-09T21:10:32.546Z,7.20
2018-09-09T21:12:34.783Z,5.67
2018-09-09T21:14:37.010Z,8.00
2018-09-09T21:16:39.255Z,6.50
2018-09-09T21:18:41.356Z,5.80
2018-09-09T21:20:43.535Z,6.57
2018-09-09T21:22:45.722Z,5.77
2018-09-09T21:24:48.191Z,6.70
2018-09-09T21:26:50.370Z,5.93
2018-09-09T21:28:52.533Z,6.43
2018-09-09T21:30:55.003Z,7.07
2018-09-09T21:32:57.466Z,6.10
2018-09-09T21:34:59.627Z,7.67
2018-09-09T21:37:01.799Z,6.73
2018-09-09T21:39:06.475Z,6.70
2018-09-09T21:41:08.585Z,6.60
2018-09-09T21:43:10.974Z,22.80
2018-09-09T21:45:13.160Z,5.87
2018-09-09T21:49:24.123Z,6.97
2018-09-09T21:53:35.158Z,7.73
2018-09-09T21:55:37.350Z,5.70
2018-09-09T21:57:39.594Z,5.80
2018-09-09T21:59:41.762Z,6.87
2018-09-09T22:01:49.558Z,6.63
2018-09-09T22:03:57.576Z,6.23
2018-09-09T22:05:59.697Z,7.00
2018-09-09T22:08:01.858Z,7.13
2018-09-09T22:10:04.608Z,6.80
2018-09-09T22:12:07.127Z,6.60
2018-09-09T22:14:09.247Z,6.67
2018-09-09T22:16:11.767Z,6.00
2018-09-09T22:18:14.092Z,9.47
2018-09-09T22:20:16.230Z,5.63
2018-09-09T22:22:20.063Z,6.13
2018-09-09T22:24:22.202Z,6.67
2018-09-09T22:26:24.334Z,5.97
2018-09-09T22:28:33.223Z,6.53
2018-09-09T22:30:35.340Z,6.40
2018-09-09T22:32:37.510Z,8.67
2018-09-09T22:34:39.932Z,6.63
2018-09-09T22:36:42.146Z,6.53
2018-09-09T22:38:44.290Z,6.10
2018-09-09T22:40:46.506Z,9.00
2018-09-09T22:42:48.736Z,7.00
2018-09-09T22:44:50.899Z,6.70
2018-09-09T22:46:53.434Z,5.87
2018-09-09T22:48:55.558Z,6.93
2018-09-09T22:50:57.707Z,7.87
2018-09-09T22:52:59.862Z,6.50
2018-09-09T22:55:02.050Z,7.57
2018-09-09T22:57:04.228Z,6.47
2018-09-09T22:59:06.369Z,8.00
2018-09-09T23:01:08.619Z,6.17
2018-09-09T23:03:10.942Z,6.03
2018-09-09T23:05:13.098Z,6.97
2018-09-09T23:07:15.214Z,8.23
2018-09-09T23:09:17.329Z,6.40
2018-09-09T23:11:19.461Z,9.07
2018-09-09T23:13:21.606Z,8.23
2018-09-09T23:15:26.096Z,6.40
2018-09-09T23:17:28.255Z,6.17
2018-09-09T23:19:30.387Z,7.67
2018-09-09T23:21:32.496Z,7.90
2018-09-09T23:23:34.667Z,7.47
2018-09-09T23:25:36.795Z,7.00
2018-09-09T23:27:38.925Z,7.70
2018-09-09T23:29:41.038Z,7.73
2018-09-09T23:31:43.210Z,6.87
2018-09-09T23:33:45.342Z,7.10
2018-09-09T23:35:47.531Z,5.83
2018-09-09T23:37:49.654Z,6.57
2018-09-09T23:39:51.826Z,5.83
2018-09-09T23:41:53.974Z,6.70
2018-09-09T23:43:56.098Z,7.03
2018-09-09T23:45:58.236Z,6.90
2018-09-09T23:48:00.386Z,6.73
2018-09-09T23:50:02.766Z,6.77
2018-09-09T23:52:04.969Z,6.77
2018-09-09T23:54:07.071Z,6.60
2018-09-09T23:56:09.276Z,6.00
2018-09-09T23:58:11.461Z,6.30
